Time;durP1;ratioP1;P1;durP2;ratioP2;P2;SDS_P1;SDS_P2;PMS_P1;PMS_P2;Temp;Humidity;BMP_temperature;BMP_pressure;BME280_temperature;BME280_humidity;BME280_pressure;Samples;Min_cycle;Max_cycle;Signal;HPM_P1;HPM_P2
2021/03/11 00:00:44;;;;;;;14.25;10.30;;;8.50;99.90;;;;;;5018659;28;20025;-74
2021/03/11 00:03:10;;;;;;;14.23;10.13;;;8.50;99.90;;;;;;5030839;28;20104;-75
2021/03/11 00:05:37;;;;;;;12.00;9.77;;;8.40;1.00;;;;;;5026541;28;20374;-73
2021/03/11 00:08:03;;;;;;;12.55;9.75;;;8.40;1.00;;;;;;5024414;28;20096;-70
2021/03/11 00:10:30;;;;;;;13.30;11.00;;;8.40;1.00;;;;;;5023361;28;20026;-68
2021/03/11 00:12:55;;;;;;;14.40;10.13;;;8.40;1.00;;;;;;5027434;28;20034;-74
2021/03/11 00:15:23;;;;;;;10.75;9.48;;;8.40;1.00;;;;;;5019519;28;20032;-77
2021/03/11 00:17:49;;;;;;;13.70;10.23;;;8.40;1.00;;;;;;5030415;28;20022;-74
2021/03/11 00:20:23;;;;;;;17.25;10.13;;;8.30;1.00;;;;;;5022400;28;20036;-74
2021/03/11 00:22:49;;;;;;;12.65;10.13;;;8.30;1.00;;;;;;5028107;28;20108;-74
2021/03/11 00:25:17;;;;;;;11.30;9.23;;;8.40;1.00;;;;;;5026252;28;20060;-73
2021/03/11 00:27:43;;;;;;;13.85;10.60;;;8.40;1.00;;;;;;5026845;28;20074;-78
2021/03/11 00:30:11;;;;;;;13.52;10.15;;;8.40;67.00;;;;;;5021908;28;20022;-71
2021/03/11 00:32:37;;;;;;;10.90;9.38;;;8.30;99.90;;;;;;5017063;28;20079;-71
2021/03/11 00:35:04;;;;;;;14.13;9.63;;;8.30;99.90;;;;;;5030114;28;20041;-71
2021/03/11 00:37:30;;;;;;;11.90;9.88;;;8.30;99.90;;;;;;5023073;28;20560;-71
2021/03/11 00:39:55;;;;;;;12.57;9.82;;;8.30;99.90;;;;;;5018474;28;20025;-71
2021/03/11 00:42:21;;;;;;;11.27;9.40;;;8.30;99.90;;;;;;5015257;28;20504;-71
2021/03/11 00:44:46;;;;;;;10.60;9.30;;;8.30;99.90;;;;;;5022412;28;20550;-71
2021/03/11 00:47:12;;;;;;;10.98;9.63;;;8.40;99.90;;;;;;5017022;28;20026;-73
2021/03/11 00:49:38;;;;;;;11.50;9.38;;;8.40;99.90;;;;;;5017761;28;20024;-72
2021/03/11 00:52:04;;;;;;;12.68;10.23;;;8.40;99.90;;;;;;5020155;28;20025;-72
2021/03/11 00:54:30;;;;;;;12.65;9.93;;;8.40;99.90;;;;;;5025773;28;20040;-72
2021/03/11 00:56:56;;;;;;;15.20;9.88;;;8.40;99.90;;;;;;5033737;28;20029;-71
2021/03/11 00:59:21;;;;;;;11.38;8.73;;;8.40;99.90;;;;;;5021939;28;20482;-72
2021/03/11 01:01:47;;;;;;;11.10;9.23;;;8.50;99.90;;;;;;5019173;28;20026;-73
2021/03/11 01:04:13;;;;;;;10.70;9.10;;;8.50;99.90;;;;;;5021639;28;20101;-72
2021/03/11 01:06:39;;;;;;;12.40;10.45;;;8.50;99.90;;;;;;5032083;28;20022;-72
2021/03/11 01:09:05;;;;;;;11.68;9.52;;;8.50;99.90;;;;;;5032300;28;20063;-72
2021/03/11 01:11:31;;;;;;;12.65;10.43;;;8.50;99.90;;;;;;5024326;28;20030;-72
2021/03/11 01:13:57;;;;;;;10.75;9.65;;;8.50;1.00;;;;;;5028390;28;20029;-72
2021/03/11 01:16:23;;;;;;;15.55;10.95;;;8.60;1.00;;;;;;5032531;28;20029;-71
2021/03/11 01:18:49;;;;;;;13.43;9.90;;;8.50;1.00;;;;;;5020096;28;20398;-71
2021/03/11 01:21:15;;;;;;;11.68;9.48;;;8.50;1.00;;;;;;5028295;28;20026;-71
2021/03/11 01:23:41;;;;;;;13.23;10.18;;;8.60;1.00;;;;;;5032554;28;20029;-72
2021/03/11 01:26:06;;;;;;;10.48;8.93;;;8.70;1.00;;;;;;5026889;28;20022;-72
2021/03/11 01:28:32;;;;;;;12.02;10.00;;;8.60;1.00;;;;;;5035021;28;20065;-72
2021/03/11 01:30:58;;;;;;;12.02;9.98;;;8.60;5.80;;;;;;5024022;28;20030;-72
2021/03/11 01:33:23;;;;;;;12.38;10.85;;;8.60;99.90;;;;;;5025337;28;20037;-71
2021/03/11 01:35:49;;;;;;;15.10;9.82;;;8.60;99.90;;;;;;5028821;28;20083;-72
2021/03/11 01:38:14;;;;;;;10.90;9.75;;;8.60;99.90;;;;;;5029815;28;20037;-72
2021/03/11 01:40:40;;;;;;;11.38;8.48;;;8.60;99.90;;;;;;5027430;28;20032;-72
2021/03/11 01:43:06;;;;;;;11.60;9.52;;;8.60;99.90;;;;;;5033476;28;20026;-72
2021/03/11 01:45:32;;;;;;;12.73;8.98;;;8.60;1.00;;;;;;5034889;28;20025;-73
2021/03/11 01:47:57;;;;;;;12.43;9.82;;;8.60;99.90;;;;;;5034750;28;20075;-71
2021/03/11 01:50:23;;;;;;;10.90;8.90;;;8.60;1.00;;;;;;5019636;28;20053;-71
2021/03/11 01:52:50;;;;;;;12.70;10.45;;;8.60;1.00;;;;;;5021470;28;20037;-72
2021/03/11 01:55:17;;;;;;;10.55;8.73;;;8.70;99.90;;;;;;5031172;28;20034;-73
2021/03/11 01:57:43;;;;;;;10.25;8.55;;;8.70;99.90;;;;;;5028086;28;20097;-72
2021/03/11 02:00:11;;;;;;;11.40;8.70;;;8.60;1.00;;;;;;5019315;28;20033;-72
2021/03/11 02:02:39;;;;;;;11.38;8.90;;;8.60;1.00;;;;;;5017585;28;20032;-73
2021/03/11 02:05:06;;;;;;;10.85;8.82;;;8.70;40.70;;;;;;5019589;28;20494;-72
2021/03/11 02:07:31;;;;;;;10.02;7.82;;;8.70;99.90;;;;;;5029946;28;20020;-72
2021/03/11 02:09:57;;;;;;;10.30;8.52;;;8.70;9.30;;;;;;5038922;28;20022;-73
2021/03/11 02:12:35;;;;;;;12.60;8.38;;;8.70;99.90;;;;;;5033542;28;20040;-73
2021/03/11 02:15:16;;;;;;;9.48;7.57;;;8.70;99.90;;;;;;5034603;28;20159;-73
2021/03/11 02:17:59;;;;;;;8.65;6.75;;;8.70;25.90;;;;;;5023471;28;20026;-73
2021/03/11 02:20:55;;;;;;;7.68;5.90;;;8.70;99.90;;;;;;5027897;28;20100;-71
2021/03/11 02:23:45;;;;;;;8.85;6.97;;;8.70;1.00;;;;;;5029436;28;20064;-72
2021/03/11 02:26:55;;;;;;;8.40;5.25;;;8.70;88.10;;;;;;5033288;28;20366;-72
2021/03/11 02:29:27;;;;;;;5.28;4.00;;;8.70;99.90;;;;;;5002613;28;20493;-71
2021/03/11 02:31:55;;;;;;;5.88;4.70;;;8.70;1.00;;;;;;5024961;28;20072;-72
2021/03/11 02:34:25;;;;;;;5.88;4.30;;;8.70;1.00;;;;;;5014401;28;20053;-72
2021/03/11 02:36:54;;;;;;;5.35;4.05;;;8.70;1.00;;;;;;5014360;28;20498;-72
2021/03/11 02:39:24;;;;;;;6.38;4.47;;;8.70;18.90;;;;;;5013878;28;20022;-71
2021/03/11 02:41:52;;;;;;;5.47;4.22;;;8.80;1.00;;;;;;5013954;28;20022;-73
2021/03/11 02:44:20;;;;;;;5.63;4.63;;;8.80;20.40;;;;;;5013357;28;20497;-71
2021/03/11 02:46:46;;;;;;;7.10;4.18;;;8.70;89.00;;;;;;5025764;28;20021;-71
2021/03/11 02:49:12;;;;;;;6.13;5.32;;;8.70;99.90;;;;;;5033561;28;20060;-72
2021/03/11 02:51:38;;;;;;;5.68;4.03;;;8.70;99.90;;;;;;5034063;28;20373;-72
2021/03/11 02:54:05;;;;;;;5.32;4.10;;;8.70;99.90;;;;;;5033563;28;20083;-72
2021/03/11 02:56:32;;;;;;;6.22;4.13;;;8.70;99.90;;;;;;5026799;28;20066;-72
2021/03/11 02:58:59;;;;;;;5.60;4.25;;;8.70;15.30;;;;;;5032047;28;20025;-72
2021/03/11 03:01:25;;;;;;;8.45;4.68;;;8.80;1.00;;;;;;5037155;28;20125;-72
2021/03/11 03:03:52;;;;;;;7.40;4.65;;;8.70;1.00;;;;;;5033597;28;20021;-73
2021/03/11 03:06:19;;;;;;;19.13;4.97;;;8.70;7.20;;;;;;5026377;28;20022;-72
2021/03/11 03:08:45;;;;;;;5.45;4.70;;;8.80;1.00;;;;;;5034785;28;20021;-72
2021/03/11 03:11:12;;;;;;;6.85;5.53;;;8.80;1.00;;;;;;5024574;28;20116;-71
2021/03/11 03:13:40;;;;;;;7.28;5.50;;;8.80;1.00;;;;;;5025650;28;20389;-72
2021/03/11 03:16:06;;;;;;;7.47;5.50;;;8.70;1.00;;;;;;5033476;28;20022;-73
2021/03/11 03:18:32;;;;;;;7.35;5.38;;;8.70;1.00;;;;;;5027322;28;20101;-72
2021/03/11 03:20:58;;;;;;;8.65;6.65;;;8.60;1.00;;;;;;5025049;28;20049;-73
2021/03/11 03:23:25;;;;;;;7.82;6.75;;;8.60;1.00;;;;;;5029403;28;20029;-71
2021/03/11 03:25:51;;;;;;;9.13;6.93;;;8.60;1.00;;;;;;5021164;28;20385;-72
2021/03/11 03:28:18;;;;;;;6.55;5.93;;;8.80;99.90;;;;;;5011986;28;20041;-73
2021/03/11 03:30:44;;;;;;;9.80;5.65;;;8.80;99.90;;;;;;5013384;28;20018;-73
2021/03/11 03:33:11;;;;;;;8.85;6.78;;;8.70;1.00;;;;;;5012082;28;20030;-73
2021/03/11 03:35:37;;;;;;;8.57;7.07;;;8.70;60.00;;;;;;5013427;28;20462;-72
2021/03/11 03:38:03;;;;;;;10.00;7.85;;;8.60;99.90;;;;;;5020070;28;20072;-72
2021/03/11 03:40:28;;;;;;;9.23;7.00;;;8.60;99.90;;;;;;5024668;28;20056;-72
2021/03/11 03:43:14;;;;;;;13.70;7.22;;;8.80;37.30;;;;;;5031665;28;20034;-72
2021/03/11 03:45:47;;;;;;;7.63;6.35;;;8.80;1.00;;;;;;5014016;28;20093;-72
2021/03/11 03:48:18;;;;;;;10.57;7.47;;;8.70;99.90;;;;;;5015889;28;20029;-72
2021/03/11 03:50:48;;;;;;;10.77;8.25;;;8.80;99.90;;;;;;5028293;28;20068;-71
2021/03/11 03:53:26;;;;;;;12.10;7.80;;;8.70;99.90;;;;;;5027272;28;20033;-72
2021/03/11 03:55:57;;;;;;;13.10;8.73;;;8.70;99.90;;;;;;5025800;28;20054;-71
2021/03/11 03:58:27;;;;;;;12.27;7.75;;;8.60;99.90;;;;;;5043444;28;20032;-72
2021/03/11 04:00:54;;;;;;;11.18;8.07;;;8.50;99.90;;;;;;5050896;28;20056;-71
2021/03/11 04:03:21;;;;;;;9.02;7.25;;;8.50;99.90;;;;;;5028829;28;20080;-72
2021/03/11 04:05:48;;;;;;;11.02;7.50;;;8.50;99.90;;;;;;5032476;28;20485;-72
2021/03/11 04:08:15;;;;;;;9.48;7.50;;;8.40;1.00;;;;;;5039926;28;20021;-72
2021/03/11 04:10:42;;;;;;;11.55;8.45;;;8.40;1.00;;;;;;5028473;28;20549;-72
2021/03/11 04:13:08;;;;;;;9.80;7.80;;;8.40;1.00;;;;;;5029830;28;20037;-73
2021/03/11 04:15:34;;;;;;;13.48;7.82;;;8.50;1.00;;;;;;5033206;28;20034;-72
2021/03/11 04:18:01;;;;;;;8.80;7.78;;;8.50;1.00;;;;;;5026389;28;20485;-72
2021/03/11 04:20:27;;;;;;;8.95;7.22;;;8.60;1.00;;;;;;5026350;28;20030;-72
2021/03/11 04:22:55;;;;;;;7.88;6.82;;;8.50;1.00;;;;;;5033161;28;20034;-72
2021/03/11 04:25:20;;;;;;;11.73;7.68;;;8.50;1.00;;;;;;5040417;28;20022;-72
2021/03/11 04:27:46;;;;;;;9.88;8.23;;;8.50;1.00;;;;;;5024513;28;20029;-70
2021/03/11 04:30:13;;;;;;;9.70;7.82;;;8.50;1.00;;;;;;5031036;28;20032;-71
2021/03/11 04:32:39;;;;;;;9.55;6.55;;;8.50;20.00;;;;;;5029950;28;20030;-71
2021/03/11 04:35:08;;;;;;;7.10;5.18;;;8.70;95.80;;;;;;5026162;28;20037;-72
2021/03/11 04:37:39;;;;;;;5.95;3.95;;;8.80;99.90;;;;;;5016162;28;20095;-70
2021/03/11 04:40:06;;;;;;;3.78;3.08;;;9.00;99.90;;;;;;5035118;28;20030;-69
2021/03/11 04:42:36;;;;;;;4.22;3.13;;;9.20;99.90;;;;;;5033131;28;20397;-71
2021/03/11 04:45:04;;;;;;;5.28;3.92;;;9.50;99.90;;;;;;5032685;28;20398;-71
2021/03/11 04:47:32;;;;;;;3.75;2.72;;;9.60;99.90;;;;;;5032257;28;20021;-71
2021/03/11 04:50:01;;;;;;;6.18;3.15;;;9.70;99.90;;;;;;5023461;28;20386;-70
2021/03/11 04:52:28;;;;;;;8.07;2.83;;;9.80;99.90;;;;;;5031400;28;20498;-71
2021/03/11 04:54:54;;;;;;;6.32;3.33;;;9.90;99.90;;;;;;5032147;28;20034;-71
2021/03/11 04:57:20;;;;;;;3.20;2.22;;;9.90;99.90;;;;;;5028016;28;20025;-71
2021/03/11 04:59:46;;;;;;;4.65;2.63;;;9.90;99.90;;;;;;5028076;28;20075;-70
2021/03/11 05:02:12;;;;;;;6.70;2.92;;;10.00;99.90;;;;;;5031732;28;20221;-71
2021/03/11 05:04:42;;;;;;;3.55;2.97;;;9.90;99.90;;;;;;5028208;28;20550;-70
2021/03/11 05:07:08;;;;;;;4.80;2.30;;;10.00;99.90;;;;;;5036394;28;20017;-70
2021/03/11 05:09:33;;;;;;;3.60;2.92;;;10.00;99.90;;;;;;5036705;28;20025;-71
2021/03/11 05:11:59;;;;;;;5.28;2.90;;;10.00;99.90;;;;;;5036310;28;20064;-70
2021/03/11 05:14:25;;;;;;;4.70;2.90;;;10.00;99.90;;;;;;5035932;28;20087;-72
2021/03/11 05:16:50;;;;;;;3.83;3.25;;;10.10;99.90;;;;;;5028785;28;20105;-71
2021/03/11 05:19:16;;;;;;;4.38;2.88;;;10.10;99.90;;;;;;5033607;28;20108;-70
2021/03/11 05:21:41;;;;;;;4.28;2.47;;;10.10;99.90;;;;;;5035527;28;20632;-70
2021/03/11 05:24:08;;;;;;;3.38;2.72;;;10.10;99.90;;;;;;5034794;28;20437;-71
2021/03/11 05:26:34;;;;;;;4.22;2.05;;;10.10;99.90;;;;;;5035398;28;20505;-70
2021/03/11 05:28:59;;;;;;;3.13;2.35;;;10.20;99.90;;;;;;5034870;28;20065;-70
2021/03/11 05:31:25;;;;;;;4.03;2.67;;;10.20;99.90;;;;;;5026313;28;20030;-71
2021/03/11 05:33:50;;;;;;;5.20;2.97;;;10.20;99.90;;;;;;5035474;28;20025;-70
2021/03/11 05:36:16;;;;;;;3.78;2.90;;;10.20;99.90;;;;;;5034297;28;20030;-70
2021/03/11 05:38:46;;;;;;;3.97;2.72;;;10.20;99.90;;;;;;5032793;28;20013;-72
2021/03/11 05:41:13;;;;;;;2.75;2.30;;;10.20;99.90;;;;;;5027432;28;20026;-70
2021/03/11 05:43:41;;;;;;;2.40;2.20;;;10.10;99.90;;;;;;5030415;28;20121;-71
2021/03/11 05:46:07;;;;;;;4.18;2.38;;;10.20;99.90;;;;;;5026918;28;20477;-72
2021/03/11 05:48:35;;;;;;;4.70;2.88;;;10.20;99.90;;;;;;5027217;28;20487;-71
2021/03/11 05:51:01;;;;;;;4.65;3.03;;;10.20;99.90;;;;;;5039210;28;20396;-72
2021/03/11 05:53:27;;;;;;;5.40;2.65;;;10.30;99.90;;;;;;5037679;28;20104;-71
2021/03/11 05:55:53;;;;;;;5.32;2.58;;;10.20;99.90;;;;;;5044493;28;20596;-72
2021/03/11 05:58:19;;;;;;;2.75;2.25;;;10.20;99.90;;;;;;5039470;28;20485;-70
2021/03/11 06:00:45;;;;;;;2.65;2.40;;;10.20;99.90;;;;;;5040877;28;20064;-70
2021/03/11 06:03:11;;;;;;;6.63;2.75;;;10.20;99.90;;;;;;5038809;28;20022;-73
2021/03/11 06:05:38;;;;;;;3.65;2.20;;;10.20;99.90;;;;;;5035943;28;20021;-70
2021/03/11 06:08:07;;;;;;;4.07;2.45;;;10.20;99.90;;;;;;5035146;28;20037;-72
2021/03/11 06:10:34;;;;;;;4.95;2.53;;;10.20;99.90;;;;;;5030332;28;20070;-71
2021/03/11 06:13:02;;;;;;;2.85;2.53;;;10.20;99.90;;;;;;5026317;28;20025;-70
2021/03/11 06:15:37;;;;;;;6.35;3.13;;;10.30;99.90;;;;;;5034775;28;20159;-72
2021/03/11 06:18:07;;;;;;;6.93;3.17;;;10.30;99.90;;;;;;5034349;28;20057;-70
2021/03/11 06:20:34;;;;;;;8.68;3.72;;;10.30;99.90;;;;;;5034370;28;20029;-70
2021/03/11 06:23:00;;;;;;;4.35;3.05;;;10.30;99.90;;;;;;5033080;28;20032;-70
2021/03/11 06:25:28;;;;;;;4.90;2.95;;;10.20;99.90;;;;;;5026429;28;20381;-72
2021/03/11 06:27:53;;;;;;;3.50;1.83;;;10.20;99.90;;;;;;5027158;28;20389;-72
2021/03/11 06:30:33;;;;;;;7.70;2.60;;;10.20;99.90;;;;;;5027772;28;20023;-72
2021/03/11 06:33:00;;;;;;;8.48;2.95;;;10.10;1.00;;;;;;5035693;28;20528;-72
2021/03/11 06:35:27;;;;;;;6.35;2.63;;;10.10;1.00;;;;;;5035470;28;20022;-69
2021/03/11 06:37:52;;;;;;;5.05;1.95;;;10.10;1.00;;;;;;5033999;28;20084;-71
2021/03/11 06:40:19;;;;;;;11.68;2.38;;;10.20;99.90;;;;;;5024742;28;20045;-71
2021/03/11 06:42:46;;;;;;;4.18;2.50;;;10.20;99.90;;;;;;5033680;28;20025;-71
2021/03/11 06:45:25;;;;;;;4.68;2.45;;;10.40;99.90;;;;;;5033977;28;20520;-71
2021/03/11 06:47:52;;;;;;;7.30;2.70;;;10.50;99.90;;;;;;5034013;28;20452;-71
2021/03/11 06:50:20;;;;;;;9.48;2.40;;;10.50;99.90;;;;;;5031502;28;20014;-71
2021/03/11 06:53:05;;;;;;;5.10;1.98;;;10.60;99.90;;;;;;5019338;28;20034;-70
2021/03/11 06:55:31;;;;;;;6.10;2.42;;;10.70;99.90;;;;;;5014481;28;20113;-73
2021/03/11 06:58:16;;;;;;;2.40;1.88;;;10.80;99.90;;;;;;5025706;28;20081;-71
2021/03/11 07:00:42;;;;;;;4.72;2.65;;;10.80;99.90;;;;;;5010874;28;20108;-71
2021/03/11 07:03:08;;;;;;;10.13;2.45;;;10.80;99.90;;;;;;5024018;28;20030;-72
2021/03/11 07:05:39;;;;;;;4.30;2.05;;;10.90;99.90;;;;;;5034090;28;20060;-71
2021/03/11 07:08:16;;;;;;;2.55;2.10;;;10.90;99.90;;;;;;5039863;28;20057;-72
2021/03/11 07:10:45;;;;;;;6.20;2.10;;;10.90;99.90;;;;;;5039554;28;20018;-72
2021/03/11 07:13:11;;;;;;;3.70;2.05;;;10.90;99.90;;;;;;5034324;28;20029;-72
2021/03/11 07:15:38;;;;;;;3.75;1.95;;;11.00;95.40;;;;;;5027151;28;20039;-71
2021/03/11 07:18:19;;;;;;;5.35;1.95;;;11.10;56.80;;;;;;5027265;28;20065;-73
2021/03/11 07:20:44;;;;;;;9.60;2.22;;;11.20;2.80;;;;;;5020755;28;20036;-71
2021/03/11 07:23:12;;;;;;;3.50;1.50;;;11.20;17.50;;;;;;5034285;28;20109;-70
2021/03/11 07:25:39;;;;;;;4.03;1.98;;;11.20;3.20;;;;;;5029188;28;20026;-70
2021/03/11 07:28:06;;;;;;;2.70;1.73;;;11.20;6.70;;;;;;5020790;28;20022;-71
2021/03/11 07:30:47;;;;;;;5.47;1.70;;;11.30;10.60;;;;;;5034180;28;20113;-70
2021/03/11 07:33:14;;;;;;;3.80;1.98;;;11.30;33.30;;;;;;5034165;28;20030;-70
2021/03/11 07:35:41;;;;;;;2.58;1.70;;;11.40;22.90;;;;;;5033643;28;20061;-70
2021/03/11 07:38:10;;;;;;;7.18;1.80;;;11.40;45.20;;;;;;5033725;28;20547;-71
2021/03/11 07:40:36;;;;;;;3.53;1.63;;;11.40;54.40;;;;;;5027510;28;20022;-71
2021/03/11 07:43:02;;;;;;;3.42;1.50;;;11.50;26.20;;;;;;5028934;28;20067;-71
2021/03/11 07:45:28;;;;;;;7.57;2.00;;;11.50;33.20;;;;;;5031940;28;20099;-71
2021/03/11 07:47:55;;;;;;;2.92;1.92;;;11.60;7.90;;;;;;5026753;28;20018;-74
2021/03/11 07:50:21;;;;;;;2.80;1.70;;;11.70;1.00;;;;;;5021372;28;20497;-71
2021/03/11 07:52:48;;;;;;;3.30;1.70;;;11.70;17.70;;;;;;5022871;28;20037;-72
2021/03/11 07:55:13;;;;;;;2.05;1.42;;;11.80;1.00;;;;;;5022648;28;20096;-71
2021/03/11 07:57:46;;;;;;;2.00;1.02;;;11.90;1.00;;;;;;5026535;28;20096;-70
2021/03/11 08:00:15;;;;;;;1.85;1.40;;;11.90;1.00;;;;;;5041269;28;20052;-71
2021/03/11 08:02:51;;;;;;;3.75;1.58;;;12.00;1.00;;;;;;5037655;28;20477;-70
2021/03/11 08:05:28;;;;;;;2.85;1.38;;;12.10;1.00;;;;;;5029320;28;20026;-72
2021/03/11 08:08:13;;;;;;;1.45;1.10;;;12.10;1.00;;;;;;5022514;28;20090;-71
2021/03/11 08:10:54;;;;;;;8.20;1.70;;;12.10;1.00;;;;;;5014060;28;20045;-72
2021/03/11 08:13:26;;;;;;;3.17;1.30;;;12.20;1.00;;;;;;5013722;28;20080;-72
2021/03/11 08:15:53;;;;;;;2.53;1.50;;;12.30;99.90;;;;;;5012143;28;20486;-70
2021/03/11 08:18:43;;;;;;;7.35;1.88;;;12.30;99.90;;;;;;5013904;28;20061;-70
2021/03/11 08:21:24;;;;;;;3.20;1.48;;;12.40;99.90;;;;;;5021569;28;20022;-71
2021/03/11 08:23:57;;;;;;;2.10;1.33;;;12.60;99.90;;;;;;5028216;28;20033;-71
2021/03/11 08:26:38;;;;;;;6.03;1.63;;;12.60;99.90;;;;;;5034262;28;20026;-71
2021/03/11 08:29:18;;;;;;;7.68;2.13;;;12.70;99.90;;;;;;5021774;28;20026;-70
2021/03/11 08:31:45;;;;;;;3.13;0.98;;;12.70;83.40;;;;;;5023419;28;20041;-72
2021/03/11 08:34:32;;;;;;;2.63;1.50;;;12.70;99.90;;;;;;5018978;28;20022;-71
2021/03/11 08:37:20;;;;;;;1.33;1.20;;;12.80;20.60;;;;;;5021874;28;20041;-73
2021/03/11 08:39:47;;;;;;;1.05;1.00;;;12.80;1.00;;;;;;5030461;28;20029;-73
2021/03/11 08:42:49;;;;;;;2.35;1.02;;;12.80;1.00;;;;;;5043085;28;20033;-71
2021/03/11 08:45:34;;;;;;;2.35;1.00;;;12.90;1.00;;;;;;5028117;28;20109;-70
2021/03/11 08:48:16;;;;;;;2.60;1.05;;;13.00;1.00;;;;;;5026907;28;20037;-70
2021/03/11 08:50:43;;;;;;;5.72;1.05;;;13.20;99.90;;;;;;5021055;28;20090;-71
2021/03/11 08:53:09;;;;;;;6.32;1.35;;;13.20;99.90;;;;;;5019800;28;20056;-70
2021/03/11 08:55:41;;;;;;;3.90;1.23;;;13.20;99.90;;;;;;5024996;28;20022;-71
2021/03/11 08:58:27;;;;;;;2.22;1.40;;;13.30;1.00;;;;;;5020767;28;20029;-72
2021/03/11 09:01:03;;;;;;;1.63;0.90;;;13.40;99.90;;;;;;5024663;28;20037;-72
2021/03/11 09:03:39;;;;;;;5.53;1.42;;;13.30;1.00;;;;;;5021363;28;20117;-72
2021/03/11 09:06:06;;;;;;;3.75;1.02;;;13.30;74.00;;;;;;5028913;28;20030;-71
2021/03/11 09:08:34;;;;;;;9.50;1.50;;;13.20;99.90;;;;;;5039718;28;20022;-71
2021/03/11 09:11:20;;;;;;;5.10;1.10;;;13.30;99.90;;;;;;5040181;28;20412;-72
2021/03/11 09:13:48;;;;;;;3.78;1.17;;;13.40;99.90;;;;;;5038080;28;20462;-71
2021/03/11 09:16:13;;;;;;;3.50;1.08;;;13.50;99.90;;;;;;5022805;28;20098;-71
2021/03/11 09:18:39;;;;;;;3.20;1.50;;;13.50;80.20;;;;;;5022536;28;20061;-70
2021/03/11 09:21:06;;;;;;;5.07;1.20;;;13.70;1.00;;;;;;5024498;28;20064;-73
2021/03/11 09:23:41;;;;;;;1.92;1.00;;;13.70;1.00;;;;;;5023901;28;20112;-72
2021/03/11 09:26:30;;;;;;;2.55;1.20;;;13.70;1.00;;;;;;5031095;28;20021;-75
2021/03/11 09:28:59;;;;;;;2.60;1.13;;;13.70;1.00;;;;;;5023899;28;20028;-74
2021/03/11 09:31:29;;;;;;;2.22;0.70;;;13.80;99.90;;;;;;5029446;28;20097;-74
2021/03/11 09:33:56;;;;;;;4.22;0.80;;;13.80;99.90;;;;;;5032449;28;20029;-71
2021/03/11 09:36:23;;;;;;;1.60;1.00;;;13.70;99.90;;;;;;5022716;28;20312;-73
2021/03/11 09:38:49;;;;;;;2.80;1.05;;;13.70;99.90;;;;;;5018931;28;20500;-72
2021/03/11 09:41:22;;;;;;;1.00;0.90;;;13.80;99.90;;;;;;5018804;28;20485;-72
2021/03/11 09:43:48;;;;;;;2.15;1.15;;;13.80;99.90;;;;;;5017940;28;20120;-71
2021/03/11 09:46:17;;;;;;;1.70;0.93;;;13.90;99.90;;;;;;5020725;28;20045;-73
2021/03/11 09:48:48;;;;;;;4.05;0.80;;;14.10;99.90;;;;;;5018871;28;20046;-72
2021/03/11 09:51:34;;;;;;;1.88;0.90;;;14.10;99.90;;;;;;5018217;28;20026;-72
2021/03/11 09:54:03;;;;;;;0.80;0.65;;;14.10;99.90;;;;;;5017894;28;20058;-74
2021/03/11 09:56:44;;;;;;;0.73;0.73;;;14.10;1.00;;;;;;5030851;28;20037;-71
2021/03/11 09:59:14;;;;;;;3.47;0.75;;;14.10;1.00;;;;;;5010879;28;20075;-72
2021/03/11 10:01:42;;;;;;;1.25;0.60;;;14.10;1.00;;;;;;5014315;28;20037;-72
2021/03/11 10:04:15;;;;;;;0.98;0.70;;;14.10;73.80;;;;;;5016161;28;20107;-72
2021/03/11 10:06:58;;;;;;;2.75;0.70;;;14.20;12.70;;;;;;5016371;28;20627;-72
2021/03/11 10:09:24;;;;;;;4.07;0.80;;;14.10;99.90;;;;;;5016723;28;20067;-73
2021/03/11 10:11:54;;;;;;;6.35;1.27;;;14.20;99.90;;;;;;5008384;28;20026;-73
2021/03/11 10:14:23;;;;;;;1.33;0.82;;;14.30;99.90;;;;;;5014833;28;20033;-73
2021/03/11 10:16:51;;;;;;;4.78;1.05;;;14.60;1.00;;;;;;5007908;28;20030;-73
2021/03/11 10:19:18;;;;;;;1.90;0.70;;;14.80;99.90;;;;;;5018008;28;20062;-72
2021/03/11 10:21:58;;;;;;;3.17;0.90;;;15.10;21.90;;;;;;5017273;28;20121;-74
2021/03/11 10:24:32;;;;;;;1.13;0.80;;;15.10;1.00;;;;;;5023050;28;20076;-72
2021/03/11 10:26:59;;;;;;;1.40;0.75;;;15.00;99.90;;;;;;5025007;28;20041;-72
2021/03/11 10:29:28;;;;;;;2.60;0.80;;;15.00;1.00;;;;;;5019983;28;20037;-74
2021/03/11 10:32:02;;;;;;;3.22;0.90;;;14.90;1.00;;;;;;5025708;28;20026;-74
2021/03/11 10:34:28;;;;;;;1.80;0.77;;;15.00;77.70;;;;;;5020125;28;20030;-73
2021/03/11 10:37:01;;;;;;;1.42;0.88;;;15.00;67.00;;;;;;5019333;28;20048;-73
2021/03/11 10:39:28;;;;;;;2.33;0.73;;;15.10;1.00;;;;;;5020150;28;20018;-73
2021/03/11 10:42:04;;;;;;;1.42;0.57;;;15.20;21.30;;;;;;5022952;28;20025;-74
2021/03/11 10:44:32;;;;;;;1.25;0.80;;;15.10;99.90;;;;;;5017002;28;20116;-75
2021/03/11 10:47:18;;;;;;;0.85;0.50;;;15.10;99.90;;;;;;5016976;28;20231;-73
2021/03/11 10:49:45;;;;;;;1.40;0.40;;;15.10;99.90;;;;;;5012651;28;20060;-73
2021/03/11 10:52:12;;;;;;;2.03;0.50;;;15.10;1.00;;;;;;5013980;28;20040;-73
2021/03/11 10:54:39;;;;;;;3.05;0.75;;;15.00;1.00;;;;;;5015737;28;20060;-73
2021/03/11 10:57:05;;;;;;;0.55;0.50;;;14.90;99.90;;;;;;5018037;28;20037;-73
2021/03/11 10:59:45;;;;;;;1.02;0.55;;;14.90;99.90;;;;;;5022208;28;20026;-73
2021/03/11 11:02:13;;;;;;;1.40;0.60;;;14.80;99.90;;;;;;5020826;28;20026;-71
2021/03/11 11:04:40;;;;;;;5.28;2.03;;;14.70;1.00;;;;;;5015707;28;20410;-74
2021/03/11 11:07:06;;;;;;;0.60;0.60;;;14.50;99.90;;;;;;5024219;28;20105;-74
2021/03/11 11:09:32;;;;;;;2.67;0.60;;;14.50;99.90;;;;;;5022318;28;20025;-74
2021/03/11 11:11:57;;;;;;;2.05;0.60;;;14.30;99.90;;;;;;5024807;28;20022;-74
2021/03/11 11:14:23;;;;;;;0.75;0.50;;;14.20;99.90;;;;;;5018935;28;20069;-74
2021/03/11 11:16:48;;;;;;;1.35;0.68;;;14.20;1.00;;;;;;5014486;28;20112;-74
2021/03/11 11:19:14;;;;;;;1.48;0.73;;;14.10;1.00;;;;;;5015550;28;20072;-72
2021/03/11 11:21:39;;;;;;;1.58;1.15;;;14.10;1.00;;;;;;5014353;28;20041;-74
2021/03/11 11:24:06;;;;;;;0.82;0.63;;;14.00;1.00;;;;;;5014280;28;20026;-74
2021/03/11 11:26:31;;;;;;;5.78;1.08;;;14.00;3.40;;;;;;5014985;28;20378;-73
2021/03/11 11:28:57;;;;;;;2.60;0.90;;;13.90;32.20;;;;;;5017060;28;20026;-73
2021/03/11 11:31:23;;;;;;;4.55;1.08;;;13.70;68.20;;;;;;5015698;28;20086;-73
2021/03/11 11:33:48;;;;;;;2.15;0.60;;;13.80;76.20;;;;;;5014844;28;20033;-74
2021/03/11 11:36:14;;;;;;;2.15;0.70;;;13.70;99.90;;;;;;5024115;28;20096;-74
2021/03/11 11:38:39;;;;;;;1.30;0.50;;;13.60;99.90;;;;;;5020020;28;20122;-74
2021/03/11 11:41:05;;;;;;;1.33;0.70;;;13.60;91.80;;;;;;5018761;28;20090;-73
2021/03/11 11:43:31;;;;;;;0.82;0.70;;;13.50;99.90;;;;;;5022470;28;20026;-73
2021/03/11 11:45:56;;;;;;;0.60;0.60;;;13.60;99.90;;;;;;5026192;28;20477;-76
2021/03/11 11:48:22;;;;;;;0.77;0.47;;;13.50;99.90;;;;;;5033340;28;20068;-76
2021/03/11 11:50:52;;;;;;;1.67;0.75;;;13.40;99.90;;;;;;5031026;28;20457;-76
2021/03/11 11:53:17;;;;;;;1.77;0.50;;;13.40;99.90;;;;;;5028965;28;20022;-76
2021/03/11 11:55:43;;;;;;;3.47;0.70;;;13.30;99.90;;;;;;5042676;28;20095;-76
2021/03/11 11:58:09;;;;;;;0.50;0.50;;;13.40;99.90;;;;;;5027836;28;20080;-77
2021/03/11 12:00:38;;;;;;;1.63;1.17;;;13.40;99.90;;;;;;5032835;28;20037;-76
2021/03/11 12:03:04;;;;;;;1.08;0.50;;;13.50;99.90;;;;;;5028974;28;20116;-76
2021/03/11 12:05:31;;;;;;;0.45;0.40;;;13.60;99.90;;;;;;5030800;28;20052;-75
2021/03/11 12:07:56;;;;;;;0.47;0.40;;;13.80;99.90;;;;;;5032471;28;20076;-76
2021/03/11 12:10:22;;;;;;;1.58;0.60;;;13.90;99.90;;;;;;5034575;28;20057;-75
2021/03/11 12:12:48;;;;;;;1.98;0.50;;;14.00;99.90;;;;;;5040707;28;20558;-75
2021/03/11 12:15:13;;;;;;;0.77;0.52;;;14.10;99.90;;;;;;5034497;28;20089;-75
2021/03/11 12:17:39;;;;;;;3.40;1.15;;;14.10;99.90;;;;;;5032936;28;20089;-76
2021/03/11 12:20:06;;;;;;;1.45;0.60;;;14.00;99.90;;;;;;5032061;28;20504;-75
2021/03/11 12:22:32;;;;;;;1.25;0.80;;;13.90;99.90;;;;;;5041461;28;20034;-78
2021/03/11 12:24:58;;;;;;;0.77;0.50;;;13.90;99.90;;;;;;5037758;28;20030;-78
2021/03/11 12:27:24;;;;;;;0.88;0.50;;;13.80;99.90;;;;;;5020434;28;20117;-75
2021/03/11 12:29:52;;;;;;;0.82;0.50;;;13.80;99.90;;;;;;5028849;28;20028;-76
2021/03/11 12:32:18;;;;;;;0.93;0.55;;;13.90;99.90;;;;;;5019097;28;20030;-76
2021/03/11 12:34:44;;;;;;;1.05;0.52;;;14.10;99.90;;;;;;5021681;28;20029;-73
2021/03/11 12:37:09;;;;;;;1.30;0.63;;;14.00;99.90;;;;;;5018186;28;20028;-73
2021/03/11 12:39:35;;;;;;;1.15;0.57;;;14.20;99.90;;;;;;5014421;28;20029;-72
2021/03/11 12:42:01;;;;;;;0.70;0.60;;;14.30;99.90;;;;;;5017851;28;20033;-74
2021/03/11 12:44:26;;;;;;;1.42;0.70;;;14.50;99.90;;;;;;5021780;28;20022;-73
2021/03/11 12:46:54;;;;;;;0.77;0.50;;;14.40;99.90;;;;;;5016826;28;20105;-73
2021/03/11 12:49:19;;;;;;;0.73;0.50;;;14.50;73.10;;;;;;5014801;28;20030;-73
2021/03/11 12:51:45;;;;;;;0.85;0.60;;;14.50;96.10;;;;;;5015748;28;20022;-73
2021/03/11 12:54:11;;;;;;;2.17;0.80;;;14.50;75.40;;;;;;5022969;28;20033;-73
2021/03/11 12:56:36;;;;;;;0.98;0.52;;;14.50;88.60;;;;;;5021238;28;20022;-73
2021/03/11 12:59:02;;;;;;;1.20;0.60;;;14.40;57.20;;;;;;5021920;28;20037;-75